Wetterdaten: Montag, 04.01.2016
Datum Zeit Auen-Temp. Temp gefhlt Luftfeuchte Luftdruck Regen Wind Richtung Richtung Taupunkt Windben
04.01.2016 00:00 -0,6 C -0,8 C 94 % 1000,3 hPa 0,0 mm 0,3 km/h (0 Bft) N-NW 337 -1,4 C 0,0 km/h (0 Bft)
04.01.2016 00:05 -0,6 C -0,8 C 94 % 1000,3 hPa 0,0 mm 0,0 km/h (0 Bft) N-NW 337 -1,4 C 0,0 km/h (0 Bft)
04.01.2016 00:10 -0,6 C -0,8 C 94 % 1000,3 hPa 0,0 mm 0,0 km/h (0 Bft) W 270 -1,4 C 0,0 km/h (0 Bft)
04.01.2016 00:15 -0,8 C -0,8 C 89 % 999,9 hPa 0,0 mm 0,0 km/h (0 Bft) W-SW 247 -2,4 C 0,0 km/h (0 Bft)
04.01.2016 00:20 -0,6 C -0,8 C 94 % 999,9 hPa 0,0 mm 0,0 km/h (0 Bft) O-NO 67 -1,4 C 0,0 km/h (0 Bft)
04.01.2016 00:25 -0,6 C -0,8 C 94 % 999,9 hPa 0,0 mm 0,0 km/h (0 Bft) O-NO 67 -1,4 C 0,0 km/h (0 Bft)
04.01.2016 00:30 -0,6 C -0,8 C 94 % 999,9 hPa 0,0 mm 0,0 km/h (0 Bft) N-NW 337 -1,4 C 0,0 km/h (0 Bft)
04.01.2016 00:35 -0,6 C -0,8 C 94 % 999,2 hPa 0,0 mm 0,0 km/h (0 Bft) NO 45 -1,4 C 0,0 km/h (0 Bft)
04.01.2016 00:40 -0,6 C -0,8 C 94 % 999,2 hPa 0,0 mm 0,3 km/h (0 Bft) W-NW 292 -1,4 C 0,0 km/h (0 Bft)
04.01.2016 00:45 -0,8 C -0,8 C 89 % 999,2 hPa 0,0 mm 0,3 km/h (0 Bft) O 90 -2,4 C 0,0 km/h (0 Bft)
04.01.2016 00:50 -0,6 C -0,8 C 94 % 999,2 hPa 0,0 mm 0,3 km/h (0 Bft) NW 315 -1,4 C 0,0 km/h (0 Bft)
04.01.2016 00:55 -0,6 C -0,8 C 94 % 998,8 hPa 0,0 mm 0,3 km/h (0 Bft) W-SW 247 -1,4 C 0,0 km/h (0 Bft)
04.01.2016 01:00 -0,8 C -0,9 C 89 % 998,8 hPa 0,0 mm 0,0 km/h (0 Bft) W-SW 247 -2,4 C 0,0 km/h (0 Bft)
04.01.2016 01:05 -0,8 C -0,9 C 89 % 998,8 hPa 0,0 mm 0,0 km/h (0 Bft) NO 45 -2,4 C 0,0 km/h (0 Bft)
04.01.2016 01:10 -0,8 C -0,9 C 89 % 998,8 hPa 0,0 mm 0,0 km/h (0 Bft) W-NW 292 -2,4 C 0,0 km/h (0 Bft)
04.01.2016 01:15 -0,8 C -0,9 C 89 % 998,5 hPa 0,0 mm 0,0 km/h (0 Bft) NW 315 -2,4 C 0,0 km/h (0 Bft)
04.01.2016 01:20 -0,8 C -0,9 C 89 % 998,5 hPa 0,0 mm 0,3 km/h (0 Bft) W 270 -2,4 C 3,4 km/h (1 Bft)
04.01.2016 01:25 -0,8 C -0,9 C 89 % 998,5 hPa 0,0 mm 0,3 km/h (0 Bft) W 270 -2,4 C 0,0 km/h (0 Bft)
04.01.2016 01:30 -0,8 C -0,9 C 89 % 998,5 hPa 0,0 mm 1,0 km/h (0 Bft) W-NW 292 -2,4 C 3,6 km/h (1 Bft)
04.01.2016 01:35 -0,8 C -0,9 C 89 % 998,4 hPa 0,0 mm 1,3 km/h (1 Bft) W 270 -2,4 C 0,0 km/h (0 Bft)
04.01.2016 01:40 -0,8 C -0,9 C 89 % 998,4 hPa 0,0 mm 0,5 km/h (0 Bft) W 270 -2,4 C 0,0 km/h (0 Bft)
04.01.2016 01:45 -0,8 C -0,9 C 89 % 998,4 hPa 0,0 mm 0,3 km/h (0 Bft) NW 315 -2,4 C 0,0 km/h (0 Bft)
04.01.2016 01:50 -0,8 C -0,9 C 89 % 998,4 hPa 0,0 mm 0,5 km/h (0 Bft) NW 315 -2,4 C 0,0 km/h (0 Bft)
04.01.2016 01:55 -0,8 C -0,8 C 89 % 998,3 hPa 0,0 mm 1,0 km/h (0 Bft) W 270 -2,4 C 0,0 km/h (0 Bft)
04.01.2016 02:00 -0,8 C -0,8 C 89 % 998,3 hPa 0,0 mm 1,0 km/h (0 Bft) W-SW 247 -2,4 C 5,2 km/h (1 Bft)
04.01.2016 02:05 -0,8 C -0,8 C 89 % 998,3 hPa 0,0 mm 0,8 km/h (0 Bft) O-SO 112 -2,4 C 0,0 km/h (0 Bft)
04.01.2016 02:10 -0,6 C -0,8 C 94 % 998,3 hPa 0,0 mm 0,5 km/h (0 Bft) S-SW 202 -1,4 C 0,0 km/h (0 Bft)
04.01.2016 02:15 -0,6 C -0,7 C 89 % 998,1 hPa 0,0 mm 1,0 km/h (0 Bft) S 180 -2,2 C 4,9 km/h (1 Bft)
04.01.2016 02:20 -0,5 C -0,6 C 89 % 998,1 hPa 0,0 mm 0,8 km/h (0 Bft) SO 135 -2,1 C 6,7 km/h (2 Bft)
04.01.2016 02:25 -0,5 C -0,7 C 95 % 998,1 hPa 0,0 mm 0,8 km/h (0 Bft) NW 315 -1,2 C 2,6 km/h (1 Bft)
04.01.2016 02:30 -0,5 C -0,7 C 95 % 998,1 hPa 0,0 mm 0,3 km/h (0 Bft) NW 315 -1,2 C 0,0 km/h (0 Bft)
04.01.2016 02:35 -0,5 C -0,7 C 95 % 998,1 hPa 0,0 mm 0,3 km/h (0 Bft) N-NW 337 -1,2 C 0,0 km/h (0 Bft)
04.01.2016 02:40 -0,5 C -0,7 C 95 % 998,1 hPa 0,0 mm 0,0 km/h (0 Bft) W-NW 292 -1,2 C 0,0 km/h (0 Bft)
04.01.2016 02:45 -0,5 C -0,7 C 95 % 998,1 hPa 0,0 mm 0,0 km/h (0 Bft) W-NW 292 -1,2 C 0,0 km/h (0 Bft)
04.01.2016 02:50 -0,5 C -0,6 C 89 % 998,1 hPa 0,0 mm 0,0 km/h (0 Bft) SO 135 -2,1 C 0,0 km/h (0 Bft)
04.01.2016 02:55 -0,5 C -0,6 C 89 % 998,0 hPa 0,0 mm 0,0 km/h (0 Bft) SO 135 -2,1 C 0,0 km/h (0 Bft)
04.01.2016 03:00 -0,4 C -0,5 C 89 % 998,0 hPa 0,0 mm 0,0 km/h (0 Bft) N-NO 22 -2,0 C 0,0 km/h (0 Bft)
04.01.2016 03:05 -0,4 C -0,5 C 89 % 998,0 hPa 0,0 mm 0,0 km/h (0 Bft) O-SO 112 -2,0 C 0,0 km/h (0 Bft)
04.01.2016 03:10 -0,4 C -0,4 C 90 % 998,0 hPa 0,0 mm 0,0 km/h (0 Bft) SO 135 -1,8 C 0,0 km/h (0 Bft)
04.01.2016 03:15 -0,2 C -0,4 C 95 % 997,7 hPa 0,0 mm 0,0 km/h (0 Bft) SO 135 -0,9 C 0,0 km/h (0 Bft)
04.01.2016 03:20 -0,2 C -0,4 C 95 % 997,7 hPa 0,0 mm 0,0 km/h (0 Bft) O-NO 67 -0,9 C 0,0 km/h (0 Bft)
04.01.2016 03:25 -0,2 C -0,4 C 95 % 997,7 hPa 0,0 mm 0,0 km/h (0 Bft) SW 225 -0,9 C 0,0 km/h (0 Bft)
04.01.2016 03:30 -0,2 C -0,4 C 95 % 997,7 hPa 0,0 mm 0,0 km/h (0 Bft) SW 225 -0,9 C 0,0 km/h (0 Bft)
04.01.2016 03:35 -0,1 C -0,3 C 95 % 997,5 hPa 0,0 mm 0,0 km/h (0 Bft) SW 225 -0,8 C 0,0 km/h (0 Bft)
04.01.2016 03:40 0,0 C -0,2 C 95 % 997,5 hPa 0,0 mm 0,0 km/h (0 Bft) S 180 -0,7 C 0,0 km/h (0 Bft)
04.01.2016 03:45 0,0 C -0,2 C 95 % 997,5 hPa 0,0 mm 0,3 km/h (0 Bft) S-SO 157 -0,7 C 3,1 km/h (1 Bft)
04.01.2016 03:50 0,1 C 0,0 C 90 % 997,5 hPa 0,0 mm 2,6 km/h (1 Bft) S 180 -1,3 C 4,1 km/h (1 Bft)
04.01.2016 03:55 0,2 C 0,0 C 95 % 997,3 hPa 0,0 mm 2,6 km/h (1 Bft) S 180 -0,5 C 0,0 km/h (0 Bft)
04.01.2016 04:00 0,2 C 0,0 C 95 % 997,3 hPa 0,0 mm 1,6 km/h (1 Bft) S-SO 157 -0,5 C 4,7 km/h (1 Bft)
04.01.2016 04:05 0,2 C 0,0 C 95 % 997,3 hPa 0,0 mm 1,3 km/h (1 Bft) SW 225 -0,5 C 0,0 km/h (0 Bft)
04.01.2016 04:10 0,1 C -0,1 C 95 % 997,3 hPa 0,0 mm 1,0 km/h (0 Bft) N-NO 22 -0,6 C 0,0 km/h (0 Bft)
04.01.2016 04:15 0,1 C -0,1 C 95 % 997,6 hPa 0,0 mm 0,3 km/h (0 Bft) O-NO 67 -0,6 C 0,0 km/h (0 Bft)
04.01.2016 04:20 0,0 C -0,1 C 95 % 997,6 hPa 0,0 mm 0,3 km/h (0 Bft) SW 225 -0,7 C 0,0 km/h (0 Bft)
04.01.2016 04:25 0,1 C -0,1 C 95 % 997,6 hPa 0,0 mm 0,5 km/h (0 Bft) W 270 -0,6 C 0,0 km/h (0 Bft)
04.01.2016 04:30 0,1 C -0,1 C 95 % 997,6 hPa 0,0 mm 0,8 km/h (0 Bft) NW 315 -0,6 C 0,0 km/h (0 Bft)
04.01.2016 04:35 0,0 C -0,1 C 95 % 997,2 hPa 0,0 mm 0,5 km/h (0 Bft) W 270 -0,7 C 0,0 km/h (0 Bft)
04.01.2016 04:37 0,1 C 0,0 C 90 % 997,2 hPa 0,0 mm 0,5 km/h (0 Bft) W-SW 247 -1,3 C 3,1 km/h (1 Bft)
04.01.2016 04:40 0,1 C 0,0 C 90 % 997,2 hPa 0,0 mm 0,5 km/h (0 Bft) W-SW 247 -1,3 C 3,1 km/h (1 Bft)
04.01.2016 04:45 0,2 C 0,1 C 90 % 997,2 hPa 0,0 mm 1,0 km/h (0 Bft) S-SO 157 -1,2 C 3,9 km/h (1 Bft)
04.01.2016 04:50 0,3 C 0,2 C 90 % 997,2 hPa 0,0 mm 2,3 km/h (1 Bft) S 180 -1,1 C 2,8 km/h (1 Bft)
04.01.2016 04:55 0,3 C 0,2 C 90 % 997,2 hPa 0,0 mm 2,1 km/h (1 Bft) S 180 -1,1 C 4,4 km/h (1 Bft)
04.01.2016 05:00 0,3 C 0,1 C 95 % 997,2 hPa 0,0 mm 1,3 km/h (1 Bft) NW 315 -0,4 C 0,0 km/h (0 Bft)
04.01.2016 05:05 0,2 C 0,0 C 95 % 997,2 hPa 0,0 mm 0,8 km/h (0 Bft) NW 315 -0,5 C 0,0 km/h (0 Bft)
04.01.2016 05:10 0,1 C 0,0 C 95 % 997,2 hPa 0,0 mm 0,0 km/h (0 Bft) O-SO 112 -0,6 C 2,8 km/h (1 Bft)
04.01.2016 05:15 0,1 C 0,0 C 90 % 997,1 hPa 0,0 mm 0,0 km/h (0 Bft) O 90 -1,3 C 0,0 km/h (0 Bft)
04.01.2016 05:20 0,1 C 0,0 C 90 % 997,1 hPa 0,0 mm 0,0 km/h (0 Bft) SO 135 -1,3 C 0,0 km/h (0 Bft)
04.01.2016 05:25 0,1 C 0,0 C 90 % 997,1 hPa 0,0 mm 0,0 km/h (0 Bft) SW 225 -1,3 C 0,0 km/h (0 Bft)
04.01.2016 05:30 0,2 C 0,0 C 95 % 997,1 hPa 0,0 mm 0,0 km/h (0 Bft) W-SW 247 -0,5 C 0,0 km/h (0 Bft)
04.01.2016 05:35 0,2 C 0,0 C 95 % 997,2 hPa 0,0 mm 0,0 km/h (0 Bft) S-SO 157 -0,5 C 0,0 km/h (0 Bft)
04.01.2016 05:40 0,2 C 0,0 C 95 % 997,2 hPa 0,0 mm 0,0 km/h (0 Bft) S 180 -0,5 C 0,0 km/h (0 Bft)
04.01.2016 05:45 0,2 C 0,1 C 90 % 997,2 hPa 0,0 mm 0,0 km/h (0 Bft) S 180 -1,2 C 0,0 km/h (0 Bft)
04.01.2016 05:50 0,2 C 0,0 C 96 % 997,2 hPa 0,0 mm 0,0 km/h (0 Bft) S 180 -0,4 C 0,0 km/h (0 Bft)
04.01.2016 05:55 0,2 C 0,1 C 90 % 997,0 hPa 0,0 mm 0,5 km/h (0 Bft) S 180 -1,2 C 3,4 km/h (1 Bft)
04.01.2016 06:00 0,4 C 0,3 C 90 % 997,0 hPa 0,0 mm 2,1 km/h (1 Bft) W-SW 247 -1,0 C 7,8 km/h (2 Bft)
04.01.2016 06:05 0,4 C 0,3 C 96 % 997,0 hPa 0,0 mm 2,1 km/h (1 Bft) W-SW 247 -0,2 C 0,0 km/h (0 Bft)
04.01.2016 06:10 0,4 C 0,4 C 90 % 997,0 hPa 0,0 mm 1,8 km/h (1 Bft) SW 225 -1,0 C 7,0 km/h (2 Bft)
04.01.2016 06:15 0,7 C 0,5 C 96 % 997,2 hPa 0,0 mm 4,1 km/h (1 Bft) S-SW 202 0,1 C 10,4 km/h (2 Bft)
04.01.2016 06:20 0,6 C 0,5 C 96 % 997,2 hPa 0,0 mm 3,6 km/h (1 Bft) S 180 0,0 C 12,2 km/h (2 Bft)
04.01.2016 06:25 0,5 C 0,4 C 96 % 997,2 hPa 0,0 mm 1,3 km/h (1 Bft) NW 315 -0,1 C 0,0 km/h (0 Bft)
04.01.2016 06:30 0,4 C 0,3 C 96 % 997,2 hPa 0,0 mm 0,3 km/h (0 Bft) W 270 -0,2 C 0,0 km/h (0 Bft)
04.01.2016 06:35 0,4 C 0,3 C 96 % 997,0 hPa 0,0 mm 0,3 km/h (0 Bft) W 270 -0,2 C 0,0 km/h (0 Bft)
04.01.2016 06:40 0,6 C 0,4 C 96 % 997,0 hPa 0,0 mm 0,5 km/h (0 Bft) S-SO 157 0,0 C 0,0 km/h (0 Bft)
04.01.2016 06:45 0,6 C 0,4 C 96 % 997,0 hPa 0,0 mm 0,5 km/h (0 Bft) S 180 0,0 C 0,0 km/h (0 Bft)
04.01.2016 06:50 0,5 C 0,4 C 96 % 997,0 hPa 0,0 mm 0,3 km/h (0 Bft) NW 315 -0,1 C 2,6 km/h (1 Bft)
04.01.2016 06:55 0,4 C 0,3 C 96 % 997,0 hPa 0,0 mm 0,8 km/h (0 Bft) W 270 -0,2 C 0,0 km/h (0 Bft)
04.01.2016 07:00 0,3 C 0,1 C 96 % 997,0 hPa 0,0 mm 0,8 km/h (0 Bft) NW 315 -0,3 C 0,0 km/h (0 Bft)
04.01.2016 07:05 0,3 C 0,2 C 90 % 997,0 hPa 0,0 mm 0,5 km/h (0 Bft) S 180 -1,1 C 3,1 km/h (1 Bft)
04.01.2016 07:10 0,5 C 0,4 C 96 % 997,0 hPa 0,0 mm 1,8 km/h (1 Bft) S 180 -0,1 C 0,0 km/h (0 Bft)
04.01.2016 07:15 0,6 C 0,4 C 96 % 997,1 hPa 0,0 mm 2,8 km/h (1 Bft) SW 225 0,0 C 4,1 km/h (1 Bft)
04.01.2016 07:20 0,7 C 0,5 C 96 % 997,1 hPa 0,0 mm 3,4 km/h (1 Bft) SW 225 0,1 C 5,4 km/h (1 Bft)
04.01.2016 07:25 0,7 C 0,5 C 96 % 997,1 hPa 0,0 mm 4,1 km/h (1 Bft) SW 225 0,1 C 9,8 km/h (2 Bft)
04.01.2016 07:30 0,8 C 0,5 C 96 % 997,1 hPa 0,0 mm 4,9 km/h (1 Bft) W-SW 247 0,2 C 4,7 km/h (1 Bft)
04.01.2016 07:35 0,8 C 0,4 C 96 % 996,9 hPa 0,0 mm 5,4 km/h (1 Bft) W-SW 247 0,2 C 8,5 km/h (2 Bft)
04.01.2016 07:40 0,8 C 0,5 C 96 % 996,9 hPa 0,0 mm 4,9 km/h (1 Bft) W 270 0,2 C 0,0 km/h (0 Bft)
04.01.2016 07:45 0,7 C 0,5 C 96 % 996,9 hPa 0,0 mm 3,1 km/h (1 Bft) W 270 0,1 C 3,1 km/h (1 Bft)
04.01.2016 07:50 0,7 C 0,5 C 96 % 996,9 hPa 0,0 mm 1,3 km/h (1 Bft) W-SW 247 0,1 C 3,9 km/h (1 Bft)
04.01.2016 07:55 0,8 C 0,6 C 96 % 997,0 hPa 0,0 mm 2,3 km/h (1 Bft) W 270 0,2 C 6,2 km/h (2 Bft)
04.01.2016 08:00 0,7 C 0,6 C 96 % 997,0 hPa 0,0 mm 2,6 km/h (1 Bft) W 270 0,1 C 0,0 km/h (0 Bft)
04.01.2016 08:05 0,8 C 0,6 C 96 % 997,0 hPa 0,0 mm 1,8 km/h (1 Bft) W 270 0,2 C 5,7 km/h (1 Bft)
04.01.2016 08:10 0,9 C 0,7 C 96 % 997,0 hPa 0,0 mm 1,8 km/h (1 Bft) S 180 0,3 C 4,7 km/h (1 Bft)
04.01.2016 08:15 1,1 C 0,9 C 96 % 997,0 hPa 0,0 mm 3,9 km/h (1 Bft) W-NW 292 0,5 C 4,7 km/h (1 Bft)
04.01.2016 08:20 1,2 C 1,0 C 96 % 997,0 hPa 0,0 mm 3,9 km/h (1 Bft) SW 225 0,6 C 4,4 km/h (1 Bft)
04.01.2016 08:25 1,2 C 1,0 C 96 % 997,0 hPa 0,0 mm 4,4 km/h (1 Bft) W-NW 292 0,6 C 4,9 km/h (1 Bft)
04.01.2016 08:30 1,2 C 0,9 C 96 % 997,0 hPa 0,0 mm 4,9 km/h (1 Bft) NW 315 0,6 C 7,0 km/h (2 Bft)
04.01.2016 08:35 1,2 C 0,9 C 96 % 997,1 hPa 0,7 mm 4,9 km/h (1 Bft) W-SW 247 0,6 C 5,2 km/h (1 Bft)
04.01.2016 08:40 1,2 C 1,1 C 96 % 997,1 hPa 0,0 mm 3,9 km/h (1 Bft) W-NW 292 0,6 C 4,9 km/h (1 Bft)
04.01.2016 08:45 1,3 C 1,1 C 96 % 997,1 hPa 0,0 mm 3,9 km/h (1 Bft) W 270 0,7 C 3,9 km/h (1 Bft)
04.01.2016 08:50 1,3 C 1,1 C 96 % 997,1 hPa 0,0 mm 4,7 km/h (1 Bft) W-SW 247 0,7 C 4,4 km/h (1 Bft)
04.01.2016 08:55 1,3 C 1,1 C 96 % 997,1 hPa 0,0 mm 4,1 km/h (1 Bft) NW 315 0,7 C 6,2 km/h (2 Bft)
04.01.2016 09:00 1,3 C 1,1 C 96 % 997,1 hPa 0,0 mm 4,4 km/h (1 Bft) W 270 0,7 C 3,1 km/h (1 Bft)
04.01.2016 09:05 1,4 C 1,1 C 96 % 997,1 hPa 0,0 mm 4,7 km/h (1 Bft) SW 225 0,8 C 9,8 km/h (2 Bft)
04.01.2016 09:10 1,7 C 1,2 C 96 % 997,1 hPa 0,0 mm 6,0 km/h (2 Bft) SW 225 1,1 C 17,9 km/h (3 Bft)
04.01.2016 09:15 1,8 C 1,3 C 96 % 997,2 hPa 0,0 mm 7,0 km/h (2 Bft) W-SW 247 1,2 C 8,5 km/h (2 Bft)
04.01.2016 09:20 1,8 C 1,4 C 96 % 997,2 hPa 0,0 mm 5,4 km/h (1 Bft) W 270 1,2 C 4,1 km/h (1 Bft)
04.01.2016 09:25 1,9 C 1,5 C 96 % 997,2 hPa 0,0 mm 5,2 km/h (1 Bft) W 270 1,3 C 8,0 km/h (2 Bft)
04.01.2016 09:30 2,2 C 2,1 C 96 % 997,2 hPa 0,0 mm 3,9 km/h (1 Bft) W-SW 247 1,6 C 4,9 km/h (1 Bft)
04.01.2016 09:35 2,2 C 2,1 C 96 % 997,5 hPa 0,0 mm 4,9 km/h (1 Bft) W 270 1,6 C 9,8 km/h (2 Bft)
04.01.2016 09:40 2,4 C 1,8 C 96 % 997,5 hPa 0,0 mm 8,0 km/h (2 Bft) W-NW 292 1,8 C 18,6 km/h (3 Bft)
04.01.2016 09:45 2,4 C 1,8 C 96 % 997,5 hPa 0,0 mm 8,3 km/h (2 Bft) W-SW 247 1,8 C 7,8 km/h (2 Bft)
04.01.2016 09:50 2,6 C 2,1 C 96 % 997,5 hPa 0,0 mm 7,5 km/h (2 Bft) W-SW 247 2,0 C 15,8 km/h (3 Bft)
04.01.2016 09:55 2,5 C 2,1 C 96 % 997,5 hPa 0,0 mm 7,0 km/h (2 Bft) W-SW 247 1,9 C 6,0 km/h (2 Bft)
04.01.2016 10:00 2,5 C 2,1 C 96 % 997,5 hPa 0,0 mm 7,0 km/h (2 Bft) SW 225 1,9 C 4,7 km/h (1 Bft)
04.01.2016 10:05 2,6 C 2,3 C 95 % 997,5 hPa 0,0 mm 6,0 km/h (2 Bft) W-NW 292 1,9 C 5,4 km/h (1 Bft)
04.01.2016 10:10 2,9 C 2,5 C 95 % 997,5 hPa 0,0 mm 6,7 km/h (2 Bft) W-SW 247 2,2 C 15,5 km/h (3 Bft)
04.01.2016 10:15 3,1 C 2,6 C 94 % 997,7 hPa 0,0 mm 7,3 km/h (2 Bft) W-NW 292 2,2 C 7,0 km/h (2 Bft)
04.01.2016 10:20 3,5 C 2,9 C 94 % 997,7 hPa 0,0 mm 8,5 km/h (2 Bft) W-SW 247 2,6 C 18,9 km/h (3 Bft)
04.01.2016 10:25 3,6 C 3,1 C 94 % 997,7 hPa 0,0 mm 9,3 km/h (2 Bft) W 270 2,7 C 19,4 km/h (3 Bft)
04.01.2016 10:30 3,4 C 2,7 C 93 % 997,7 hPa 0,0 mm 10,6 km/h (2 Bft) W 270 2,4 C 24,1 km/h (4 Bft)
04.01.2016 10:35 3,1 C 2,3 C 92 % 997,8 hPa 0,0 mm 11,7 km/h (2 Bft) W 270 1,9 C 20,2 km/h (4 Bft)
04.01.2016 10:38 3,0 C 2,0 C 91 % 997,8 hPa 0,0 mm 14,0 km/h (3 Bft) W 270 1,7 C 18,1 km/h (3 Bft)
04.01.2016 10:40 3,0 C 2,0 C 91 % 997,8 hPa 0,0 mm 14,0 km/h (3 Bft) W 270 1,7 C 18,1 km/h (3 Bft)
04.01.2016 10:45 2,8 C 2,1 C 92 % 997,8 hPa 0,0 mm 14,8 km/h (3 Bft) W-NW 292 1,6 C 16,1 km/h (3 Bft)
04.01.2016 10:50 2,6 C 1,8 C 91 % 997,8 hPa 0,0 mm 12,7 km/h (3 Bft) W-SW 247 1,3 C 10,4 km/h (2 Bft)
04.01.2016 10:55 2,5 C 1,7 C 91 % 997,8 hPa 0,0 mm 10,1 km/h (2 Bft) W 270 1,2 C 9,8 km/h (2 Bft)
04.01.2016 11:00 2,6 C 1,8 C 91 % 997,8 hPa 0,0 mm 10,1 km/h (2 Bft) W 270 1,3 C 10,9 km/h (2 Bft)
04.01.2016 11:05 2,6 C 1,8 C 91 % 997,8 hPa 0,0 mm 10,4 km/h (2 Bft) W-SW 247 1,3 C 9,1 km/h (2 Bft)
04.01.2016 11:10 2,5 C 1,9 C 91 % 997,8 hPa 0,0 mm 9,1 km/h (2 Bft) W 270 1,2 C 18,6 km/h (3 Bft)
04.01.2016 11:15 2,6 C 1,9 C 91 % 997,9 hPa 0,0 mm 9,1 km/h (2 Bft) S-SW 202 1,3 C 17,3 km/h (3 Bft)
04.01.2016 11:20 2,8 C 2,1 C 91 % 997,9 hPa 0,0 mm 9,8 km/h (2 Bft) W 270 1,5 C 9,3 km/h (2 Bft)
04.01.2016 11:25 2,9 C 2,2 C 91 % 997,9 hPa 0,0 mm 9,1 km/h (2 Bft) W-SW 247 1,6 C 8,8 km/h (2 Bft)
04.01.2016 11:30 2,9 C 2,4 C 91 % 997,9 hPa 0,0 mm 7,8 km/h (2 Bft) NW 315 1,6 C 9,6 km/h (2 Bft)
04.01.2016 11:35 2,9 C 2,4 C 91 % 998,0 hPa 0,0 mm 7,8 km/h (2 Bft) SW 225 1,6 C 9,6 km/h (2 Bft)
04.01.2016 11:40 2,9 C 2,3 C 91 % 998,0 hPa 0,0 mm 9,1 km/h (2 Bft) W-NW 292 1,6 C 24,3 km/h (4 Bft)
04.01.2016 11:45 2,8 C 2,1 C 91 % 998,0 hPa 0,0 mm 9,3 km/h (2 Bft) NW 315 1,5 C 8,3 km/h (2 Bft)
04.01.2016 11:50 2,7 C 1,9 C 91 % 998,0 hPa 0,7 mm 10,6 km/h (2 Bft) W 270 1,4 C 38,8 km/h (5 Bft)
04.01.2016 11:55 2,6 C 1,9 C 89 % 998,0 hPa 0,0 mm 12,7 km/h (3 Bft) W-SW 247 1,0 C 11,7 km/h (2 Bft)
04.01.2016 12:00 2,6 C 1,6 C 89 % 998,0 hPa 0,0 mm 12,7 km/h (3 Bft) W 270 1,0 C 19,2 km/h (3 Bft)
04.01.2016 12:05 2,5 C 1,7 C 89 % 998,0 hPa 0,0 mm 10,1 km/h (2 Bft) W-SW 247 0,9 C 12,2 km/h (2 Bft)
04.01.2016 12:10 2,6 C 1,8 C 89 % 998,0 hPa 0,0 mm 11,1 km/h (2 Bft) S 180 1,0 C 3,6 km/h (1 Bft)
04.01.2016 12:15 2,8 C 2,2 C 88 % 998,3 hPa 0,0 mm 9,3 km/h (2 Bft) NW 315 1,0 C 7,0 km/h (2 Bft)
04.01.2016 12:20 2,9 C 2,5 C 88 % 998,3 hPa 0,0 mm 7,8 km/h (2 Bft) NW 315 1,1 C 11,1 km/h (2 Bft)
04.01.2016 12:25 2,9 C 2,5 C 87 % 998,3 hPa 0,0 mm 8,5 km/h (2 Bft) W-NW 292 1,0 C 7,8 km/h (2 Bft)
04.01.2016 12:30 3,1 C 2,7 C 87 % 998,3 hPa 0,0 mm 10,1 km/h (2 Bft) W 270 1,2 C 16,3 km/h (3 Bft)
04.01.2016 12:35 3,1 C 2,5 C 88 % 998,2 hPa 0,0 mm 10,9 km/h (2 Bft) W-SW 247 1,3 C 16,8 km/h (3 Bft)
04.01.2016 12:40 2,9 C 2,4 C 87 % 998,2 hPa 0,0 mm 12,4 km/h (3 Bft) W 270 1,0 C 20,2 km/h (4 Bft)
04.01.2016 12:45 2,9 C 2,0 C 87 % 998,2 hPa 0,0 mm 11,7 km/h (2 Bft) W 270 1,0 C 8,3 km/h (2 Bft)
04.01.2016 12:50 2,9 C 2,1 C 87 % 998,2 hPa 0,0 mm 11,1 km/h (2 Bft) W 270 1,0 C 22,3 km/h (4 Bft)
04.01.2016 12:55 2,9 C 2,1 C 87 % 998,2 hPa 0,0 mm 11,4 km/h (2 Bft) S 180 1,0 C 10,4 km/h (2 Bft)
04.01.2016 13:00 2,9 C 2,4 C 87 % 998,2 hPa 0,0 mm 12,4 km/h (3 Bft) W-NW 292 1,0 C 14,8 km/h (3 Bft)
04.01.2016 13:05 2,9 C 2,1 C 86 % 998,2 hPa 0,0 mm 11,7 km/h (2 Bft) W 270 0,8 C 13,5 km/h (3 Bft)
04.01.2016 13:10 2,9 C 2,3 C 86 % 998,2 hPa 0,0 mm 9,8 km/h (2 Bft) NW 315 0,8 C 6,0 km/h (2 Bft)
04.01.2016 13:15 2,9 C 2,2 C 86 % 998,4 hPa 0,0 mm 10,1 km/h (2 Bft) W-SW 247 0,8 C 15,5 km/h (3 Bft)
04.01.2016 13:20 3,0 C 2,4 C 85 % 998,4 hPa 0,0 mm 12,7 km/h (3 Bft) W-SW 247 0,7 C 5,7 km/h (1 Bft)
04.01.2016 13:25 3,0 C 2,3 C 85 % 998,4 hPa 0,0 mm 14,5 km/h (3 Bft) W 270 0,7 C 17,9 km/h (3 Bft)
04.01.2016 13:30 3,0 C 2,3 C 85 % 998,4 hPa 0,0 mm 12,2 km/h (2 Bft) W-SW 247 0,7 C 15,5 km/h (3 Bft)
04.01.2016 13:35 3,0 C 2,5 C 85 % 998,3 hPa 0,0 mm 12,9 km/h (3 Bft) W-SW 247 0,7 C 10,9 km/h (2 Bft)
04.01.2016 13:40 3,0 C 2,3 C 85 % 998,3 hPa 0,0 mm 10,9 km/h (2 Bft) NW 315 0,7 C 17,6 km/h (3 Bft)
04.01.2016 13:45 2,9 C 2,4 C 85 % 998,3 hPa 0,0 mm 8,8 km/h (2 Bft) W-SW 247 0,6 C 11,9 km/h (2 Bft)
04.01.2016 13:50 3,1 C 2,8 C 85 % 998,3 hPa 0,0 mm 8,8 km/h (2 Bft) W 270 0,8 C 11,1 km/h (2 Bft)
04.01.2016 13:55 3,0 C 2,6 C 84 % 998,5 hPa 0,0 mm 10,9 km/h (2 Bft) W 270 0,6 C 23,8 km/h (4 Bft)
04.01.2016 14:00 3,1 C 2,9 C 84 % 998,5 hPa 0,0 mm 12,4 km/h (3 Bft) NW 315 0,7 C 11,4 km/h (2 Bft)
04.01.2016 14:05 3,0 C 2,7 C 84 % 998,5 hPa 0,0 mm 11,1 km/h (2 Bft) NW 315 0,6 C 12,7 km/h (3 Bft)
04.01.2016 14:10 3,1 C 3,1 C 84 % 998,5 hPa 0,0 mm 9,1 km/h (2 Bft) NW 315 0,7 C 16,3 km/h (3 Bft)
04.01.2016 14:15 2,9 C 3,1 C 84 % 998,5 hPa 0,0 mm 8,0 km/h (2 Bft) W-NW 292 0,5 C 10,9 km/h (2 Bft)
04.01.2016 14:20 2,8 C 2,6 C 85 % 998,5 hPa 0,0 mm 8,5 km/h (2 Bft) SW 225 0,5 C 15,3 km/h (3 Bft)
04.01.2016 14:25 2,7 C 2,3 C 85 % 998,5 hPa 0,0 mm 9,3 km/h (2 Bft) NW 315 0,4 C 19,7 km/h (3 Bft)
04.01.2016 14:30 2,3 C 1,7 C 84 % 998,5 hPa 0,0 mm 11,1 km/h (2 Bft) NW 315 -0,1 C 13,5 km/h (3 Bft)
04.01.2016 14:35 2,0 C 1,1 C 84 % 998,8 hPa 0,0 mm 11,9 km/h (2 Bft) W-SW 247 -0,4 C 20,2 km/h (4 Bft)
04.01.2016 14:40 1,7 C 0,8 C 86 % 998,8 hPa 0,0 mm 10,9 km/h (2 Bft) W-NW 292 -0,4 C 13,5 km/h (3 Bft)
04.01.2016 14:45 1,6 C 0,5 C 86 % 998,8 hPa 0,7 mm 11,7 km/h (2 Bft) W-SW 247 -0,5 C 19,9 km/h (4 Bft)
04.01.2016 14:50 1,7 C 0,8 C 87 % 998,8 hPa 0,0 mm 12,7 km/h (3 Bft) N-NO 22 -0,2 C 8,8 km/h (2 Bft)
04.01.2016 14:55 1,7 C 0,6 C 87 % 998,4 hPa 0,0 mm 11,7 km/h (2 Bft) W-SW 247 -0,2 C 14,5 km/h (3 Bft)
04.01.2016 15:00 1,8 C 1,0 C 88 % 998,4 hPa 0,0 mm 9,1 km/h (2 Bft) W-SW 247 0,0 C 14,8 km/h (3 Bft)
04.01.2016 15:05 1,9 C 0,9 C 88 % 998,4 hPa 0,0 mm 10,9 km/h (2 Bft) W-SW 247 0,1 C 21,0 km/h (4 Bft)
04.01.2016 15:10 2,0 C 1,3 C 85 % 998,4 hPa 0,0 mm 13,5 km/h (3 Bft) W-SW 247 -0,3 C 10,4 km/h (2 Bft)
04.01.2016 15:15 2,0 C 1,3 C 85 % 998,5 hPa 0,0 mm 13,7 km/h (3 Bft) W-NW 292 -0,3 C 17,6 km/h (3 Bft)
04.01.2016 15:20 1,9 C 1,1 C 88 % 998,5 hPa 0,0 mm 13,2 km/h (3 Bft) W 270 0,1 C 12,7 km/h (3 Bft)
04.01.2016 15:25 1,7 C 0,7 C 88 % 998,5 hPa 0,0 mm 11,9 km/h (2 Bft) W-SW 247 -0,1 C 8,8 km/h (2 Bft)
04.01.2016 15:30 1,5 C 0,6 C 88 % 998,5 hPa 0,0 mm 9,3 km/h (2 Bft) W 270 -0,3 C 10,9 km/h (2 Bft)
04.01.2016 15:35 1,5 C 0,6 C 88 % 998,5 hPa 0,0 mm 9,6 km/h (2 Bft) NW 315 -0,3 C 10,9 km/h (2 Bft)
04.01.2016 15:40 1,4 C 0,4 C 88 % 998,5 hPa 0,0 mm 9,8 km/h (2 Bft) W 270 -0,4 C 8,3 km/h (2 Bft)
04.01.2016 15:45 1,4 C 0,5 C 88 % 998,5 hPa 0,0 mm 8,5 km/h (2 Bft) W-SW 247 -0,4 C 17,9 km/h (3 Bft)
04.01.2016 15:50 1,4 C 0,5 C 88 % 998,5 hPa 0,0 mm 8,3 km/h (2 Bft) N 360 -0,4 C 8,8 km/h (2 Bft)
04.01.2016 15:55 1,4 C 0,4 C 88 % 998,7 hPa 0,0 mm 8,8 km/h (2 Bft) W 270 -0,4 C 7,8 km/h (2 Bft)
04.01.2016 16:00 1,3 C 0,4 C 88 % 998,7 hPa 0,0 mm 7,8 km/h (2 Bft) W-NW 292 -0,5 C 9,3 km/h (2 Bft)
04.01.2016 16:05 1,4 C 0,6 C 88 % 998,7 hPa 0,0 mm 7,5 km/h (2 Bft) W 270 -0,4 C 7,0 km/h (2 Bft)
04.01.2016 16:10 1,3 C 0,6 C 88 % 998,7 hPa 0,0 mm 7,0 km/h (2 Bft) W-SW 247 -0,5 C 6,2 km/h (2 Bft)
04.01.2016 16:15 1,2 C 0,6 C 88 % 998,7 hPa 0,0 mm 6,0 km/h (2 Bft) W-SW 247 -0,6 C 7,3 km/h (2 Bft)
04.01.2016 16:20 1,2 C 0,7 C 88 % 998,7 hPa 0,0 mm 5,2 km/h (1 Bft) SW 225 -0,6 C 7,5 km/h (2 Bft)
04.01.2016 16:25 1,1 C 0,5 C 89 % 998,7 hPa 0,0 mm 5,4 km/h (1 Bft) W 270 -0,5 C 9,3 km/h (2 Bft)
04.01.2016 16:30 1,2 C 0,5 C 89 % 998,7 hPa 0,0 mm 6,5 km/h (2 Bft) W-SW 247 -0,4 C 13,2 km/h (3 Bft)
04.01.2016 16:35 1,2 C 0,4 C 89 % 998,7 hPa 0,0 mm 7,5 km/h (2 Bft) W-SW 247 -0,4 C 8,5 km/h (2 Bft)
04.01.2016 16:39 1,1 C 0,3 C 89 % 998,7 hPa 0,0 mm 7,0 km/h (2 Bft) W-SW 247 -0,5 C 9,3 km/h (2 Bft)
04.01.2016 16:40 1,1 C 0,3 C 89 % 998,7 hPa 0,0 mm 7,0 km/h (2 Bft) W-SW 247 -0,5 C 9,3 km/h (2 Bft)
04.01.2016 16:45 1,2 C 0,4 C 89 % 998,7 hPa 0,0 mm 7,0 km/h (2 Bft) W-SW 247 -0,4 C 10,1 km/h (2 Bft)
04.01.2016 16:50 1,2 C 0,4 C 89 % 998,7 hPa 0,0 mm 6,7 km/h (2 Bft) W-SW 247 -0,4 C 7,3 km/h (2 Bft)
04.01.2016 16:55 1,1 C 0,5 C 89 % 998,8 hPa 0,0 mm 6,0 km/h (2 Bft) W-SW 247 -0,5 C 5,7 km/h (1 Bft)
04.01.2016 17:00 1,1 C 0,5 C 89 % 998,8 hPa 0,0 mm 5,2 km/h (1 Bft) W-SW 247 -0,5 C 6,2 km/h (2 Bft)
04.01.2016 17:05 1,1 C 0,5 C 89 % 998,8 hPa 0,0 mm 5,4 km/h (1 Bft) W-NW 292 -0,5 C 6,0 km/h (2 Bft)
04.01.2016 17:10 1,0 C 0,5 C 89 % 998,8 hPa 0,0 mm 4,4 km/h (1 Bft) W 270 -0,6 C 0,0 km/h (0 Bft)
04.01.2016 17:15 1,0 C 0,5 C 89 % 998,9 hPa 0,0 mm 4,1 km/h (1 Bft) W 270 -0,6 C 4,7 km/h (1 Bft)
04.01.2016 17:20 1,1 C 0,5 C 89 % 998,9 hPa 0,0 mm 5,2 km/h (1 Bft) W-SW 247 -0,5 C 5,2 km/h (1 Bft)
04.01.2016 17:25 1,1 C 0,4 C 89 % 998,9 hPa 0,0 mm 6,5 km/h (2 Bft) N 360 -0,5 C 9,1 km/h (2 Bft)
04.01.2016 17:30 1,2 C 0,3 C 89 % 998,9 hPa 0,0 mm 7,5 km/h (2 Bft) SW 225 -0,4 C 9,3 km/h (2 Bft)
04.01.2016 17:35 1,2 C 0,2 C 89 % 998,7 hPa 0,0 mm 8,3 km/h (2 Bft) SW 225 -0,4 C 12,7 km/h (3 Bft)
04.01.2016 17:40 1,1 C 0,1 C 89 % 998,7 hPa 0,0 mm 7,8 km/h (2 Bft) SW 225 -0,5 C 10,1 km/h (2 Bft)
04.01.2016 17:45 1,2 C 0,3 C 89 % 998,7 hPa 0,0 mm 6,7 km/h (2 Bft) W 270 -0,4 C 4,7 km/h (1 Bft)
04.01.2016 17:50 1,0 C 0,3 C 89 % 998,7 hPa 0,0 mm 5,4 km/h (1 Bft) W 270 -0,6 C 3,6 km/h (1 Bft)
04.01.2016 17:55 0,9 C 0,5 C 89 % 999,0 hPa 0,0 mm 4,1 km/h (1 Bft) NW 315 -0,7 C 3,6 km/h (1 Bft)
04.01.2016 18:00 0,8 C 0,4 C 89 % 999,0 hPa 0,0 mm 3,9 km/h (1 Bft) W-SW 247 -0,8 C 10,1 km/h (2 Bft)
04.01.2016 18:05 0,8 C 0,3 C 89 % 999,0 hPa 0,0 mm 4,1 km/h (1 Bft) W-NW 292 -0,8 C 4,9 km/h (1 Bft)
04.01.2016 18:10 0,7 C 0,2 C 89 % 999,0 hPa 0,0 mm 4,4 km/h (1 Bft) W 270 -0,9 C 7,8 km/h (2 Bft)
04.01.2016 18:15 0,8 C 0,2 C 89 % 999,2 hPa 0,0 mm 5,4 km/h (1 Bft) SW 225 -0,8 C 12,2 km/h (2 Bft)
04.01.2016 18:20 0,7 C 0,0 C 89 % 999,2 hPa 0,0 mm 6,2 km/h (2 Bft) W-SW 247 -0,9 C 4,9 km/h (1 Bft)
04.01.2016 18:25 0,8 C 0,1 C 89 % 999,2 hPa 0,0 mm 6,0 km/h (2 Bft) W-SW 247 -0,8 C 5,4 km/h (1 Bft)
04.01.2016 18:30 1,0 C 0,1 C 89 % 999,2 hPa 0,0 mm 6,5 km/h (2 Bft) W-SW 247 -0,6 C 10,9 km/h (2 Bft)
04.01.2016 18:35 1,1 C 0,1 C 89 % 999,3 hPa 0,0 mm 8,0 km/h (2 Bft) W-SW 247 -0,5 C 6,5 km/h (2 Bft)
04.01.2016 18:40 1,1 C 0,1 C 89 % 999,3 hPa 0,0 mm 8,3 km/h (2 Bft) W-SW 247 -0,5 C 9,6 km/h (2 Bft)
04.01.2016 18:45 1,0 C 0,2 C 89 % 999,3 hPa 0,0 mm 7,0 km/h (2 Bft) W-SW 247 -0,6 C 10,6 km/h (2 Bft)
04.01.2016 18:50 0,9 C 0,1 C 89 % 999,3 hPa 0,0 mm 6,7 km/h (2 Bft) W-SW 247 -0,7 C 11,1 km/h (2 Bft)
04.01.2016 18:55 0,9 C 0,1 C 89 % 999,3 hPa 0,0 mm 6,7 km/h (2 Bft) W-SW 247 -0,7 C 13,5 km/h (3 Bft)
04.01.2016 19:00 0,9 C 0,0 C 89 % 999,3 hPa 0,0 mm 7,8 km/h (2 Bft) W-SW 247 -0,7 C 9,8 km/h (2 Bft)
04.01.2016 19:05 0,6 C -0,2 C 89 % 999,3 hPa 0,0 mm 7,0 km/h (2 Bft) W-SW 247 -1,0 C 4,7 km/h (1 Bft)
04.01.2016 19:10 0,5 C 0,1 C 89 % 999,3 hPa 0,0 mm 3,6 km/h (1 Bft) W-SW 247 -1,1 C 0,0 km/h (0 Bft)
04.01.2016 19:15 0,4 C 0,0 C 89 % 999,4 hPa 0,0 mm 1,8 km/h (1 Bft) W-SW 247 -1,2 C 3,4 km/h (1 Bft)
04.01.2016 19:20 0,2 C -0,3 C 89 % 999,4 hPa 0,0 mm 0,5 km/h (0 Bft) W-SW 247 -1,4 C 0,0 km/h (0 Bft)
04.01.2016 19:25 0,2 C -0,3 C 89 % 999,4 hPa 0,0 mm 0,3 km/h (0 Bft) W-SW 247 -1,4 C 0,0 km/h (0 Bft)
04.01.2016 19:30 0,0 C -0,5 C 89 % 999,4 hPa 0,0 mm 0,3 km/h (0 Bft) W-SW 247 -1,6 C 0,0 km/h (0 Bft)
04.01.2016 19:35 0,2 C -0,4 C 90 % 999,3 hPa 0,0 mm 1,6 km/h (1 Bft) W-SW 247 -1,2 C 6,7 km/h (2 Bft)
04.01.2016 19:40 0,3 C -0,3 C 90 % 999,3 hPa 0,0 mm 3,9 km/h (1 Bft) W-SW 247 -1,1 C 13,7 km/h (3 Bft)
04.01.2016 19:45 0,5 C -0,3 C 90 % 999,3 hPa 0,0 mm 4,9 km/h (1 Bft) W-SW 247 -0,9 C 0,0 km/h (0 Bft)
04.01.2016 19:50 0,4 C -0,3 C 90 % 999,3 hPa 0,0 mm 4,7 km/h (1 Bft) W-SW 247 -1,0 C 7,8 km/h (2 Bft)
04.01.2016 19:55 0,6 C 0,0 C 90 % 999,5 hPa 0,0 mm 4,4 km/h (1 Bft) W-SW 247 -0,8 C 9,6 km/h (2 Bft)
04.01.2016 20:00 0,9 C -0,2 C 90 % 999,5 hPa 0,0 mm 8,3 km/h (2 Bft) W-SW 247 -0,6 C 14,5 km/h (3 Bft)
04.01.2016 20:05 1,1 C 0,0 C 89 % 999,5 hPa 0,0 mm 8,8 km/h (2 Bft) W-SW 247 -0,5 C 14,0 km/h (3 Bft)
04.01.2016 20:10 1,2 C 0,0 C 89 % 999,5 hPa 0,0 mm 9,6 km/h (2 Bft) W-SW 247 -0,4 C 12,9 km/h (3 Bft)
04.01.2016 20:15 1,3 C 0,1 C 88 % 999,3 hPa 0,0 mm 10,9 km/h (2 Bft) W-SW 247 -0,5 C 12,4 km/h (3 Bft)
04.01.2016 20:20 1,1 C 0,1 C 87 % 999,3 hPa 0,0 mm 9,6 km/h (2 Bft) W-SW 247 -0,8 C 12,2 km/h (2 Bft)
04.01.2016 20:25 1,2 C 0,2 C 87 % 999,3 hPa 0,0 mm 8,8 km/h (2 Bft) W-SW 247 -0,7 C 6,2 km/h (2 Bft)
04.01.2016 20:30 1,2 C 0,3 C 86 % 999,3 hPa 0,0 mm 9,1 km/h (2 Bft) W-SW 247 -0,9 C 10,4 km/h (2 Bft)
04.01.2016 20:35 1,1 C 0,2 C 86 % 999,4 hPa 0,0 mm 8,8 km/h (2 Bft) W-SW 247 -1,0 C 7,5 km/h (2 Bft)
04.01.2016 20:40 1,2 C 0,4 C 85 % 999,4 hPa 0,0 mm 8,0 km/h (2 Bft) W-SW 247 -1,0 C 8,0 km/h (2 Bft)
04.01.2016 20:45 1,2 C 0,4 C 85 % 999,4 hPa 0,0 mm 7,5 km/h (2 Bft) W-SW 247 -1,0 C 12,4 km/h (3 Bft)
04.01.2016 20:50 1,1 C 0,4 C 84 % 999,4 hPa 0,0 mm 7,3 km/h (2 Bft) W-SW 247 -1,3 C 10,1 km/h (2 Bft)
04.01.2016 20:55 1,0 C 0,4 C 84 % 999,5 hPa 0,0 mm 7,0 km/h (2 Bft) W-SW 247 -1,4 C 10,1 km/h (2 Bft)
04.01.2016 21:00 1,1 C 0,5 C 84 % 999,5 hPa 0,0 mm 6,5 km/h (2 Bft) W-SW 247 -1,3 C 8,5 km/h (2 Bft)
04.01.2016 21:05 1,1 C 0,5 C 83 % 999,5 hPa 0,0 mm 7,0 km/h (2 Bft) W-SW 247 -1,5 C 9,3 km/h (2 Bft)
04.01.2016 21:10 1,1 C 0,6 C 83 % 999,5 hPa 0,0 mm 6,7 km/h (2 Bft) W-SW 247 -1,5 C 9,3 km/h (2 Bft)
04.01.2016 21:15 0,9 C 0,6 C 84 % 999,7 hPa 0,0 mm 5,4 km/h (1 Bft) W-SW 247 -1,5 C 0,0 km/h (0 Bft)
04.01.2016 21:20 0,8 C 0,7 C 84 % 999,7 hPa 0,0 mm 3,6 km/h (1 Bft) W-SW 247 -1,6 C 0,0 km/h (0 Bft)
04.01.2016 21:25 1,3 C 0,9 C 84 % 999,7 hPa 0,0 mm 5,4 km/h (1 Bft) SW 225 -1,1 C 7,8 km/h (2 Bft)
04.01.2016 21:30 1,7 C 0,9 C 83 % 999,7 hPa 0,0 mm 8,5 km/h (2 Bft) W-SW 247 -0,9 C 5,2 km/h (1 Bft)
04.01.2016 21:35 1,5 C 0,7 C 83 % 999,8 hPa 0,0 mm 8,8 km/h (2 Bft) W-SW 247 -1,1 C 14,2 km/h (3 Bft)
04.01.2016 21:40 1,7 C 0,6 C 82 % 999,8 hPa 0,0 mm 11,1 km/h (2 Bft) SW 225 -1,0 C 12,7 km/h (3 Bft)
04.01.2016 21:45 1,4 C 0,4 C 82 % 999,8 hPa 0,0 mm 11,9 km/h (2 Bft) SW 225 -1,3 C 16,3 km/h (3 Bft)
04.01.2016 21:50 1,4 C 0,4 C 82 % 999,8 hPa 0,0 mm 10,6 km/h (2 Bft) W-SW 247 -1,3 C 13,7 km/h (3 Bft)
04.01.2016 21:55 1,3 C 0,3 C 82 % 999,9 hPa 0,0 mm 11,1 km/h (2 Bft) W-SW 247 -1,4 C 14,2 km/h (3 Bft)
04.01.2016 22:00 1,0 C 0,2 C 82 % 999,9 hPa 0,0 mm 8,8 km/h (2 Bft) W-SW 247 -1,7 C 3,4 km/h (1 Bft)
04.01.2016 22:05 0,6 C 0,1 C 82 % 999,9 hPa 0,0 mm 6,0 km/h (2 Bft) W-SW 247 -2,1 C 10,4 km/h (2 Bft)
04.01.2016 22:10 0,4 C 0,0 C 82 % 999,9 hPa 0,0 mm 4,7 km/h (1 Bft) S-SO 157 -2,3 C 4,4 km/h (1 Bft)
04.01.2016 22:15 0,3 C 0,0 C 83 % 999,8 hPa 0,0 mm 3,4 km/h (1 Bft) SO 135 -2,2 C 0,0 km/h (0 Bft)
04.01.2016 22:20 0,3 C -0,2 C 83 % 999,8 hPa 0,0 mm 2,8 km/h (1 Bft) W-SW 247 -2,2 C 15,0 km/h (3 Bft)
04.01.2016 22:25 0,6 C -0,1 C 84 % 999,8 hPa 0,0 mm 5,4 km/h (1 Bft) W-SW 247 -1,8 C 11,4 km/h (2 Bft)
04.01.2016 22:30 1,1 C 0,0 C 84 % 999,8 hPa 0,0 mm 9,6 km/h (2 Bft) SW 225 -1,3 C 16,6 km/h (3 Bft)
04.01.2016 22:35 1,3 C 0,2 C 84 % 999,8 hPa 0,0 mm 9,8 km/h (2 Bft) SW 225 -1,1 C 12,2 km/h (2 Bft)
04.01.2016 22:40 1,5 C 0,5 C 83 % 999,8 hPa 0,0 mm 9,8 km/h (2 Bft) NW 315 -1,1 C 12,9 km/h (3 Bft)
04.01.2016 22:45 1,4 C 0,7 C 83 % 999,8 hPa 0,0 mm 7,8 km/h (2 Bft) W-SW 247 -1,2 C 4,7 km/h (1 Bft)
04.01.2016 22:50 1,3 C 0,8 C 83 % 999,8 hPa 0,0 mm 6,2 km/h (2 Bft) W-SW 247 -1,3 C 9,8 km/h (2 Bft)
04.01.2016 22:55 1,5 C 0,8 C 83 % 999,7 hPa 0,0 mm 6,7 km/h (2 Bft) N-NW 337 -1,1 C 10,1 km/h (2 Bft)
04.01.2016 23:00 1,7 C 0,8 C 82 % 999,7 hPa 0,0 mm 9,6 km/h (2 Bft) SW 225 -1,0 C 11,4 km/h (2 Bft)
04.01.2016 23:05 1,7 C 0,7 C 81 % 999,7 hPa 0,0 mm 10,1 km/h (2 Bft) S 180 -1,2 C 10,9 km/h (2 Bft)
04.01.2016 23:10 1,4 C 0,6 C 80 % 999,7 hPa 0,0 mm 9,1 km/h (2 Bft) W-SW 247 -1,7 C 12,7 km/h (3 Bft)
04.01.2016 23:15 1,5 C 0,7 C 80 % 999,8 hPa 0,0 mm 8,8 km/h (2 Bft) W 270 -1,6 C 8,8 km/h (2 Bft)
04.01.2016 23:20 1,6 C 0,8 C 80 % 999,8 hPa 0,0 mm 8,3 km/h (2 Bft) W-SW 247 -1,5 C 8,5 km/h (2 Bft)
04.01.2016 23:25 1,4 C 0,8 C 80 % 999,8 hPa 0,0 mm 7,3 km/h (2 Bft) W-SW 247 -1,7 C 8,0 km/h (2 Bft)
04.01.2016 23:30 1,3 C 0,7 C 80 % 999,8 hPa 0,0 mm 6,7 km/h (2 Bft) W-SW 247 -1,8 C 7,3 km/h (2 Bft)
04.01.2016 23:35 1,3 C 0,7 C 80 % 999,8 hPa 0,0 mm 7,0 km/h (2 Bft) W-SW 247 -1,8 C 9,8 km/h (2 Bft)
04.01.2016 23:40 1,3 C 0,7 C 80 % 999,8 hPa 0,0 mm 7,8 km/h (2 Bft) W-SW 247 -1,8 C 10,9 km/h (2 Bft)
04.01.2016 23:46 1,4 C 0,7 C 80 % 999,8 hPa 0,0 mm 8,0 km/h (2 Bft) SW 225 -1,7 C 9,6 km/h (2 Bft)
04.01.2016 23:50 1,3 C 0,6 C 79 % 999,8 hPa 0,0 mm 8,0 km/h (2 Bft) S 180 -1,9 C 11,1 km/h (2 Bft)
04.01.2016 23:55 1,4 C 0,6 C 79 % 999,7 hPa 0,0 mm 8,3 km/h (2 Bft) SW 225 -1,8 C 12,7 km/h (3 Bft)
_ Min-Zeit 02:05 01:50 23:55 07:50 - 05:50 - - 02:05 22:15
Minimum _ -0,8 C -0,9 C 79 % 996,9 hPa - 0,0 km/h (0 Bft) - - -2,4 C 0,0 km/h (0 Bft)
_ Max-Zeit 10:25 14:15 10:00 00:10 14:45 10:45 - - 10:25 11:50
Maximum _ 3,6 C 3,1 C 96 % 1000,3 hPa 0,7 mm 14,8 km/h
W-NW (3 Bft)
- - 2,7 C 38,8 km/h
W (5 Bft)
Durchschnitt _ 1,1 C 0,6 C 90 % 998,4 hPa #2,1 mm 5,6 km/h (1 Bft) W-SW - -0,4 C 7,4 km/h (2 Bft)